createdAt,value
2022-09-17T00:01:13.032Z,100.00
2022-09-17T00:03:39.627Z,100.00
2022-09-17T00:06:11.781Z,100.00
2022-09-17T00:08:40.571Z,100.00
2022-09-17T00:11:09.660Z,100.00
2022-09-17T00:13:36.416Z,100.00
2022-09-17T00:16:03.581Z,100.00
2022-09-17T00:18:30.194Z,100.00
2022-09-17T00:20:56.673Z,100.00
2022-09-17T00:23:23.168Z,100.00
2022-09-17T00:25:49.641Z,100.00
2022-09-17T00:28:16.185Z,100.00
2022-09-17T00:30:44.476Z,100.00
2022-09-17T00:33:13.032Z,100.00
2022-09-17T00:35:39.539Z,100.00
2022-09-17T00:38:06.589Z,100.00
2022-09-17T00:40:33.375Z,100.00
2022-09-17T00:43:00.169Z,100.00
2022-09-17T00:45:28.314Z,100.00
2022-09-17T00:48:00.856Z,100.00
2022-09-17T00:50:34.030Z,100.00
2022-09-17T00:53:17.243Z,100.00
2022-09-17T00:55:48.758Z,100.00
2022-09-17T00:58:18.658Z,100.00
2022-09-17T01:00:47.018Z,100.00
2022-09-17T01:03:14.033Z,100.00
2022-09-17T01:05:43.242Z,100.00
2022-09-17T01:09:00.823Z,100.00
2022-09-17T01:11:50.082Z,100.00
2022-09-17T01:14:45.394Z,99.84
2022-09-17T01:17:14.776Z,100.00
2022-09-17T01:19:59.920Z,100.00
2022-09-17T01:22:54.451Z,99.16
2022-09-17T01:25:25.557Z,100.00
2022-09-17T01:27:58.127Z,100.00
2022-09-17T01:30:32.533Z,100.00
2022-09-17T01:33:12.411Z,100.00
2022-09-17T01:35:50.542Z,100.00
2022-09-17T01:38:28.333Z,100.00
2022-09-17T01:41:19.554Z,100.00
2022-09-17T01:43:50.967Z,100.00
2022-09-17T01:46:24.822Z,100.00
2022-09-17T01:48:58.403Z,100.00
2022-09-17T01:51:29.187Z,100.00
2022-09-17T01:54:03.099Z,100.00
2022-09-17T01:56:38.467Z,100.00
2022-09-17T01:59:11.243Z,100.00
2022-09-17T02:01:41.201Z,100.00
2022-09-17T02:04:13.338Z,100.00
2022-09-17T02:06:45.250Z,100.00
2022-09-17T02:09:20.067Z,100.00
2022-09-17T02:11:52.720Z,100.00
2022-09-17T02:14:24.985Z,100.00
2022-09-17T02:16:56.883Z,100.00
2022-09-17T02:19:27.058Z,100.00
2022-09-17T02:22:01.274Z,100.00
2022-09-17T02:24:37.621Z,99.11
2022-09-17T02:27:22.637Z,99.29
2022-09-17T02:29:49.769Z,99.20
2022-09-17T02:32:16.292Z,99.87
2022-09-17T02:34:42.991Z,99.72
2022-09-17T02:37:09.765Z,100.00
2022-09-17T02:39:36.519Z,100.00
2022-09-17T02:42:22.243Z,100.00
2022-09-17T02:45:10.010Z,100.00
2022-09-17T02:48:04.573Z,100.00
2022-09-17T02:50:33.696Z,100.00
2022-09-17T02:53:00.114Z,98.86
2022-09-17T02:55:39.163Z,98.61
2022-09-17T02:58:24.779Z,99.68
2022-09-17T03:00:52.273Z,98.75
2022-09-17T03:03:31.527Z,98.56
2022-09-17T03:05:58.840Z,98.56
2022-09-17T03:08:32.070Z,97.30
2022-09-17T03:10:58.620Z,98.01
2022-09-17T03:13:25.377Z,97.59
2022-09-17T03:15:52.177Z,97.70
2022-09-17T03:18:18.686Z,97.42
2022-09-17T03:20:46.480Z,97.59
2022-09-17T03:23:13.178Z,97.39
2022-09-17T03:25:39.690Z,97.27
2022-09-17T03:28:06.185Z,98.81
2022-09-17T03:30:32.748Z,98.82
2022-09-17T03:32:59.262Z,98.34
2022-09-17T03:35:25.797Z,98.39
2022-09-17T03:37:52.363Z,97.93
2022-09-17T03:40:19.910Z,94.41
2022-09-17T03:42:46.611Z,96.38
2022-09-17T03:45:13.194Z,93.93
2022-09-17T03:47:39.694Z,92.57
2022-09-17T03:50:06.555Z,89.82
2022-09-17T03:52:33.044Z,90.59
2022-09-17T03:54:59.567Z,90.22
2022-09-17T03:57:26.062Z,90.32
2022-09-17T03:59:52.675Z,90.67
2022-09-17T04:02:19.207Z,90.72
2022-09-17T04:04:45.746Z,91.32
2022-09-17T04:07:12.219Z,90.74
2022-09-17T04:09:38.767Z,91.11
2022-09-17T04:12:05.431Z,91.58
2022-09-17T04:14:32.014Z,92.08
2022-09-17T04:16:58.906Z,92.38
2022-09-17T04:19:25.470Z,91.99
2022-09-17T04:21:53.022Z,90.87
2022-09-17T04:24:19.626Z,91.06
2022-09-17T04:26:46.182Z,89.80
2022-09-17T04:29:12.651Z,90.84
2022-09-17T04:31:39.138Z,92.32
2022-09-17T04:34:05.876Z,91.88
2022-09-17T04:36:32.363Z,93.38
2022-09-17T04:38:59.084Z,92.31
2022-09-17T04:41:25.562Z,91.03
2022-09-17T04:43:52.218Z,93.73
2022-09-17T04:46:18.911Z,96.11
2022-09-17T04:48:45.418Z,94.78
2022-09-17T04:51:12.176Z,95.47
2022-09-17T04:53:38.662Z,94.02
2022-09-17T04:56:05.474Z,92.24
2022-09-17T04:58:33.019Z,92.64
2022-09-17T05:00:59.730Z,90.77
2022-09-17T05:03:26.560Z,88.83
2022-09-17T05:05:53.059Z,88.86
2022-09-17T05:08:19.534Z,88.48
2022-09-17T05:10:46.064Z,89.03
2022-09-17T05:13:12.550Z,88.50
2022-09-17T05:15:39.072Z,90.83
2022-09-17T05:18:05.605Z,89.85
2022-09-17T05:20:32.244Z,88.91
2022-09-17T05:22:58.714Z,88.66
2022-09-17T05:25:25.268Z,88.79
2022-09-17T05:27:56.272Z,89.68
2022-09-17T05:30:23.119Z,89.88
2022-09-17T05:32:49.722Z,90.76
2022-09-17T05:35:16.447Z,93.23
2022-09-17T05:37:42.951Z,93.62
2022-09-17T05:40:10.307Z,93.90
2022-09-17T05:42:36.911Z,92.92
2022-09-17T05:45:03.826Z,92.64
2022-09-17T05:47:30.307Z,95.64
2022-09-17T05:49:56.835Z,93.58
2022-09-17T05:52:28.077Z,92.23
2022-09-17T05:54:55.129Z,88.44
2022-09-17T05:57:21.710Z,87.78
2022-09-17T05:59:48.254Z,88.40
2022-09-17T06:02:14.865Z,88.33
2022-09-17T06:04:41.482Z,88.87
2022-09-17T06:07:09.327Z,87.41
2022-09-17T06:09:37.583Z,87.44
2022-09-17T06:12:07.450Z,87.01
2022-09-17T06:14:33.972Z,87.63
2022-09-17T06:17:00.473Z,87.01
2022-09-17T06:19:28.119Z,87.08
2022-09-17T06:21:55.173Z,87.20
2022-09-17T06:24:21.669Z,85.82
2022-09-17T06:26:48.179Z,84.90
2022-09-17T06:29:15.252Z,85.26
2022-09-17T06:31:44.862Z,85.88
2022-09-17T06:34:11.975Z,86.19
2022-09-17T06:36:38.699Z,86.09
2022-09-17T06:39:05.258Z,85.62
2022-09-17T06:41:31.747Z,84.17
2022-09-17T06:43:58.833Z,83.61
2022-09-17T06:46:25.833Z,84.65
2022-09-17T06:48:52.341Z,85.78
2022-09-17T06:51:18.874Z,85.91
2022-09-17T06:53:45.560Z,87.24
2022-09-17T06:56:12.179Z,87.43
2022-09-17T06:58:38.717Z,89.03
2022-09-17T07:01:06.022Z,88.09
2022-09-17T07:03:33.397Z,87.10
2022-09-17T07:06:00.206Z,87.44
2022-09-17T07:08:26.747Z,83.78
2022-09-17T07:10:57.519Z,85.80
2022-09-17T07:13:25.110Z,82.85
2022-09-17T07:15:59.963Z,82.71
2022-09-17T07:18:26.980Z,83.10
2022-09-17T07:20:59.175Z,85.03
2022-09-17T07:23:30.287Z,85.82
2022-09-17T07:25:59.350Z,85.26
2022-09-17T07:28:26.970Z,84.37
2022-09-17T07:30:53.924Z,83.16
2022-09-17T07:33:23.406Z,80.63
2022-09-17T07:35:58.246Z,79.72
2022-09-17T07:38:27.304Z,79.80
2022-09-17T07:41:05.426Z,81.00
2022-09-17T07:43:33.969Z,76.81
2022-09-17T07:46:02.016Z,74.78
2022-09-17T07:48:29.569Z,75.06
2022-09-17T07:50:56.448Z,75.35
2022-09-17T07:53:23.515Z,76.27
2022-09-17T07:55:53.266Z,76.93
2022-09-17T07:58:21.046Z,78.18
2022-09-17T08:00:48.369Z,77.67
2022-09-17T08:03:14.994Z,71.35
2022-09-17T08:05:41.617Z,73.54
2022-09-17T08:08:08.123Z,73.94
2022-09-17T08:10:35.543Z,72.29
2022-09-17T08:13:02.012Z,72.12
2022-09-17T08:15:29.056Z,72.68
2022-09-17T08:17:55.622Z,72.29
2022-09-17T08:20:24.199Z,72.44
2022-09-17T08:22:50.701Z,72.18
2022-09-17T08:25:17.214Z,72.49
2022-09-17T08:27:44.252Z,72.01
2022-09-17T08:30:11.044Z,71.87
2022-09-17T08:32:37.536Z,71.11
2022-09-17T08:35:04.164Z,71.56
2022-09-17T08:37:30.844Z,72.56
2022-09-17T08:39:58.358Z,73.53
2022-09-17T08:42:57.744Z,69.32
2022-09-17T08:45:24.398Z,71.74
2022-09-17T08:47:51.029Z,73.82
2022-09-17T08:50:42.502Z,72.68
2022-09-17T08:53:24.151Z,72.44
2022-09-17T08:56:02.947Z,73.91
2022-09-17T08:58:41.640Z,74.66
2022-09-17T09:01:14.258Z,74.41
2022-09-17T09:03:53.499Z,74.63
2022-09-17T09:06:23.910Z,73.14
2022-09-17T09:08:58.737Z,74.62
2022-09-17T09:11:31.040Z,73.85
2022-09-17T09:14:06.928Z,72.83
2022-09-17T09:16:37.556Z,74.70
2022-09-17T09:19:26.933Z,72.79
2022-09-17T09:22:01.636Z,72.56
2022-09-17T09:24:34.278Z,73.83
2022-09-17T09:27:13.618Z,73.25
2022-09-17T09:30:02.237Z,73.54
2022-09-17T09:32:34.866Z,72.52
2022-09-17T09:35:14.258Z,73.17
2022-09-17T09:37:53.303Z,71.52
2022-09-17T09:40:26.176Z,70.41
2022-09-17T09:42:57.466Z,70.27
2022-09-17T09:45:49.317Z,71.08
2022-09-17T09:48:38.513Z,70.97
2022-09-17T09:51:33.702Z,70.62
2022-09-17T09:54:18.858Z,69.19
2022-09-17T09:56:59.160Z,70.22
2022-09-17T09:59:26.396Z,72.42
2022-09-17T10:01:53.372Z,70.04
2022-09-17T10:04:26.178Z,67.72
2022-09-17T10:06:55.847Z,68.63
2022-09-17T10:09:22.733Z,68.64
2022-09-17T10:12:02.718Z,67.64
2022-09-17T10:14:35.001Z,68.87
2022-09-17T10:17:14.283Z,69.10
2022-09-17T10:19:41.944Z,69.40
2022-09-17T10:22:19.463Z,69.74
2022-09-17T10:24:47.034Z,67.66
2022-09-17T10:27:17.031Z,66.53
2022-09-17T10:29:49.227Z,68.20
2022-09-17T10:32:18.050Z,68.89
2022-09-17T10:35:24.592Z,67.71
2022-09-17T10:37:52.982Z,64.97
2022-09-17T10:40:19.524Z,64.37
2022-09-17T10:42:46.391Z,64.66
2022-09-17T10:45:32.358Z,62.94
2022-09-17T10:48:00.369Z,64.83
2022-09-17T10:50:32.810Z,61.74
2022-09-17T10:53:04.660Z,61.94
2022-09-17T10:55:51.991Z,60.88
2022-09-17T10:58:33.334Z,61.42
2022-09-17T11:01:24.363Z,59.41
2022-09-17T11:04:14.850Z,60.00
2022-09-17T11:07:06.282Z,58.98
2022-09-17T11:10:00.734Z,58.13
2022-09-17T11:12:37.116Z,58.44
2022-09-17T11:15:29.612Z,58.10
2022-09-17T11:18:19.227Z,59.39
2022-09-17T11:21:13.458Z,60.54
2022-09-17T11:24:07.403Z,60.02
2022-09-17T11:27:17.813Z,58.01
2022-09-17T11:30:16.915Z,57.61
2022-09-17T11:32:50.259Z,55.82
2022-09-17T11:35:22.863Z,57.17
2022-09-17T11:38:03.885Z,59.04
2022-09-17T11:40:40.115Z,58.56
2022-09-17T11:43:30.507Z,58.14
2022-09-17T11:46:17.451Z,58.71
2022-09-17T11:48:48.748Z,59.64
2022-09-17T11:51:27.829Z,58.48
2022-09-17T11:54:14.151Z,59.11
2022-09-17T11:56:47.821Z,59.59
2022-09-17T11:59:34.083Z,59.70
2022-09-17T12:02:15.514Z,60.25
2022-09-17T12:05:19.890Z,58.48
2022-09-17T12:08:01.298Z,58.68
2022-09-17T12:10:35.613Z,57.91
2022-09-17T12:13:31.315Z,57.76
2022-09-17T12:16:12.975Z,58.11
2022-09-17T12:18:48.636Z,58.53
2022-09-17T12:21:21.472Z,59.07
2022-09-17T12:23:54.131Z,59.14
2022-09-17T12:26:33.324Z,58.96
2022-09-17T12:29:29.199Z,59.37
2022-09-17T12:32:01.943Z,58.68
2022-09-17T12:34:50.530Z,59.94
2022-09-17T12:37:20.981Z,58.55
2022-09-17T12:39:53.162Z,57.83
2022-09-17T12:42:19.611Z,58.88
2022-09-17T12:45:18.442Z,57.66
2022-09-17T12:48:06.542Z,58.58
2022-09-17T12:50:53.352Z,58.08
2022-09-17T12:53:25.911Z,57.50
2022-09-17T12:56:00.595Z,57.98
2022-09-17T12:58:50.474Z,58.97
2022-09-17T13:01:35.168Z,59.51
2022-09-17T13:04:43.600Z,59.61
2022-09-17T13:07:16.111Z,59.91
2022-09-17T13:09:45.511Z,58.94
2022-09-17T13:12:35.947Z,59.80
2022-09-17T13:15:31.552Z,59.81
2022-09-17T13:18:27.471Z,59.38
2022-09-17T13:20:56.890Z,60.79
2022-09-17T13:23:37.735Z,60.71
2022-09-17T13:26:06.012Z,61.02
2022-09-17T13:28:43.400Z,61.78
2022-09-17T13:31:18.944Z,62.39
2022-09-17T13:33:59.670Z,62.24
2022-09-17T13:36:42.587Z,61.94
2022-09-17T13:39:30.484Z,62.44
2022-09-17T13:42:09.506Z,63.14
2022-09-17T13:44:41.297Z,62.03
2022-09-17T13:47:22.424Z,62.87
2022-09-17T13:49:58.046Z,63.13
2022-09-17T13:52:46.849Z,63.70
2022-09-17T13:55:49.322Z,63.92
2022-09-17T13:58:18.896Z,63.44
2022-09-17T14:00:51.427Z,63.93
2022-09-17T14:03:30.841Z,64.38
2022-09-17T14:06:10.994Z,63.92
2022-09-17T14:08:43.602Z,64.63
2022-09-17T14:11:22.159Z,64.04
2022-09-17T14:14:14.299Z,63.79
2022-09-17T14:16:45.722Z,63.55
2022-09-17T14:19:29.621Z,63.65
2022-09-17T14:22:00.673Z,64.51
2022-09-17T14:24:33.150Z,62.54
2022-09-17T14:27:08.670Z,64.40
2022-09-17T14:29:50.731Z,64.08
2022-09-17T14:32:27.803Z,63.92
2022-09-17T14:34:54.633Z,63.98
2022-09-17T14:37:24.215Z,64.08
2022-09-17T14:39:52.506Z,63.88
2022-09-17T14:42:35.670Z,63.27
2022-09-17T14:45:16.082Z,64.14
2022-09-17T14:47:42.838Z,63.48
2022-09-17T14:50:24.569Z,63.63
2022-09-17T14:52:53.482Z,63.47
2022-09-17T14:55:24.041Z,63.34
2022-09-17T14:57:56.616Z,63.33
2022-09-17T15:00:31.465Z,63.64
2022-09-17T15:03:00.839Z,62.95
2022-09-17T15:05:34.193Z,62.84
2022-09-17T15:08:09.684Z,62.36
2022-09-17T15:10:48.971Z,63.11
2022-09-17T15:13:19.346Z,63.63
2022-09-17T15:15:56.295Z,63.78
2022-09-17T15:18:38.234Z,64.42
2022-09-17T15:21:15.310Z,64.75
2022-09-17T15:23:42.753Z,64.15
2022-09-17T15:26:09.997Z,64.70
2022-09-17T15:28:41.537Z,62.93
2022-09-17T15:31:18.131Z,64.10
2022-09-17T15:33:45.959Z,63.72
2022-09-17T15:36:27.363Z,64.24
2022-09-17T15:38:54.327Z,64.91
2022-09-17T15:41:36.882Z,65.39
2022-09-17T15:44:32.101Z,65.25
2022-09-17T15:47:39.352Z,66.37
2022-09-17T15:50:18.931Z,66.04
2022-09-17T15:52:46.132Z,67.10
2022-09-17T15:56:03.079Z,66.54
2022-09-17T15:58:51.679Z,67.15
2022-09-17T16:01:18.438Z,67.83
2022-09-17T16:03:44.945Z,67.66
2022-09-17T16:06:20.774Z,67.60
2022-09-17T16:09:01.289Z,67.55
2022-09-17T16:11:31.895Z,67.57
2022-09-17T16:14:00.232Z,67.90
2022-09-17T16:16:36.181Z,67.76
2022-09-17T16:19:04.399Z,67.18
2022-09-17T16:21:31.251Z,67.06
2022-09-17T16:23:58.272Z,67.30
2022-09-17T16:26:30.669Z,66.78
2022-09-17T16:29:02.677Z,67.69
2022-09-17T16:31:29.728Z,67.35
2022-09-17T16:33:56.255Z,67.93
2022-09-17T16:36:22.899Z,68.55
2022-09-17T16:38:49.405Z,68.51
2022-09-17T16:41:15.874Z,68.61
2022-09-17T16:43:42.371Z,68.98
2022-09-17T16:46:10.909Z,68.49
2022-09-17T16:48:38.079Z,69.86
2022-09-17T16:51:08.699Z,68.63
2022-09-17T16:53:35.170Z,70.41
2022-09-17T16:56:01.923Z,69.50
2022-09-17T16:58:28.411Z,70.01
2022-09-17T17:00:55.042Z,70.22
2022-09-17T17:03:21.700Z,69.49
2022-09-17T17:05:48.295Z,70.08
2022-09-17T17:08:14.855Z,70.31
2022-09-17T17:10:41.670Z,71.01
2022-09-17T17:13:08.172Z,71.46
2022-09-17T17:15:34.707Z,72.05
2022-09-17T17:18:01.183Z,72.03
2022-09-17T17:20:27.749Z,72.31
2022-09-17T17:22:55.080Z,73.04
2022-09-17T17:25:23.667Z,73.28
2022-09-17T17:27:50.356Z,72.51
2022-09-17T17:30:17.500Z,74.03
2022-09-17T17:32:45.930Z,74.05
2022-09-17T17:35:12.467Z,72.99
2022-09-17T17:37:39.000Z,72.80
2022-09-17T17:40:08.947Z,73.90
2022-09-17T17:42:38.200Z,74.56
2022-09-17T17:45:06.454Z,74.33
2022-09-17T17:47:33.219Z,73.20
2022-09-17T17:49:59.691Z,73.41
2022-09-17T17:52:26.257Z,72.68
2022-09-17T17:54:52.875Z,72.20
2022-09-17T17:57:19.474Z,72.85
2022-09-17T17:59:46.010Z,73.30
2022-09-17T18:02:12.653Z,73.23
2022-09-17T18:04:39.194Z,73.55
2022-09-17T18:07:05.764Z,72.92
2022-09-17T18:09:32.311Z,73.43
2022-09-17T18:11:58.811Z,73.13
2022-09-17T18:14:25.282Z,73.51
2022-09-17T18:16:51.803Z,74.23
2022-09-17T18:19:18.320Z,74.23
2022-09-17T18:21:44.801Z,74.23
2022-09-17T18:24:11.502Z,74.82
2022-09-17T18:26:38.007Z,74.08
2022-09-17T18:29:07.904Z,75.24
2022-09-17T18:31:35.410Z,75.85
2022-09-17T18:34:04.973Z,75.74
2022-09-17T18:36:33.578Z,76.15
2022-09-17T18:39:53.310Z,77.10
2022-09-17T18:41:49.039Z,76.77
2022-09-17T18:44:16.023Z,77.09
2022-09-17T18:46:42.780Z,77.43
2022-09-17T18:49:09.421Z,77.95
2022-09-17T18:51:35.923Z,77.54
2022-09-17T18:54:03.831Z,76.87
2022-09-17T18:56:35.869Z,77.77
2022-09-17T18:59:07.750Z,77.71
2022-09-17T19:01:34.991Z,77.99
2022-09-17T19:04:01.807Z,77.61
2022-09-17T19:06:28.737Z,77.18
2022-09-17T19:09:00.138Z,77.13
2022-09-17T19:11:26.847Z,76.80
2022-09-17T19:13:53.323Z,76.49
2022-09-17T19:16:19.982Z,76.02
2022-09-17T19:18:46.604Z,76.29
2022-09-17T19:21:18.272Z,76.26
2022-09-17T19:23:47.373Z,76.16
2022-09-17T19:26:25.385Z,76.47
2022-09-17T19:28:53.438Z,76.66
2022-09-17T19:31:20.933Z,77.45
2022-09-17T19:33:47.715Z,78.06
2022-09-17T19:36:16.235Z,78.09
2022-09-17T19:38:43.262Z,77.90
2022-09-17T19:41:12.487Z,78.32
2022-09-17T19:43:39.414Z,78.71
2022-09-17T19:46:07.083Z,78.61
2022-09-17T19:48:37.566Z,77.96
2022-09-17T19:51:05.145Z,78.03
2022-09-17T19:53:32.871Z,78.50
2022-09-17T19:55:59.537Z,76.85
2022-09-17T19:58:26.058Z,77.29
2022-09-17T20:00:59.183Z,77.52
2022-09-17T20:03:26.579Z,78.29
2022-09-17T20:06:00.770Z,78.74
2022-09-17T20:08:27.540Z,79.18
2022-09-17T20:10:55.041Z,80.04
2022-09-17T20:13:22.676Z,80.07
2022-09-17T20:15:49.273Z,80.78
2022-09-17T20:18:18.716Z,80.55
2022-09-17T20:20:49.135Z,81.06
2022-09-17T20:23:15.616Z,81.49
2022-09-17T20:25:42.117Z,81.28
2022-09-17T20:28:08.585Z,81.76
2022-09-17T20:30:35.087Z,82.47
2022-09-17T20:33:01.606Z,82.32
2022-09-17T20:35:28.119Z,82.27
2022-09-17T20:40:41.169Z,82.68
2022-09-17T20:43:07.638Z,81.75
2022-09-17T20:45:34.106Z,81.57
2022-09-17T20:48:00.612Z,81.73
2022-09-17T20:50:27.132Z,82.23
2022-09-17T20:52:53.623Z,82.03
2022-09-17T20:55:21.509Z,81.58
2022-09-17T20:57:48.332Z,82.12
2022-09-17T21:00:20.520Z,82.93
2022-09-17T21:02:51.810Z,82.73
2022-09-17T21:05:18.643Z,82.26
2022-09-17T21:07:45.691Z,82.95
2022-09-17T21:10:13.516Z,82.80
2022-09-17T21:12:40.010Z,83.13
2022-09-17T21:15:06.834Z,83.94
2022-09-17T21:17:33.934Z,83.08
2022-09-17T21:20:00.502Z,82.65
2022-09-17T21:22:26.994Z,82.70
2022-09-17T21:24:53.470Z,82.58
2022-09-17T21:27:19.950Z,82.65
2022-09-17T21:29:46.412Z,82.36
2022-09-17T21:32:12.919Z,81.76
2022-09-17T21:34:39.419Z,82.65
2022-09-17T21:37:06.479Z,82.72
2022-09-17T21:39:35.050Z,82.54
2022-09-17T21:42:01.550Z,82.05
2022-09-17T21:44:28.063Z,82.00
2022-09-17T21:46:57.493Z,82.08
2022-09-17T21:49:25.073Z,82.32
2022-09-17T21:51:51.924Z,81.90
2022-09-17T21:54:18.622Z,81.69
2022-09-17T21:56:46.210Z,82.60
2022-09-17T21:59:14.531Z,82.60
2022-09-17T22:01:47.290Z,82.98
2022-09-17T22:04:20.589Z,83.19
2022-09-17T22:06:49.020Z,83.82
2022-09-17T22:09:21.384Z,84.42
2022-09-17T22:11:48.621Z,83.48
2022-09-17T22:14:19.342Z,83.76
2022-09-17T22:16:48.625Z,83.58
2022-09-17T22:19:16.703Z,85.11
2022-09-17T22:21:46.601Z,84.27
2022-09-17T22:24:15.103Z,83.99
2022-09-17T22:26:44.128Z,83.08
2022-09-17T22:29:16.070Z,83.07
2022-09-17T22:31:43.221Z,81.96
2022-09-17T22:34:14.127Z,82.36
2022-09-17T22:36:41.398Z,81.84
2022-09-17T22:39:08.264Z,82.20
2022-09-17T22:41:37.082Z,82.90
2022-09-17T22:44:06.236Z,83.53
2022-09-17T22:46:35.541Z,82.60
2022-09-17T22:49:02.394Z,82.50
2022-09-17T22:51:30.181Z,82.55
2022-09-17T22:53:56.933Z,82.85
2022-09-17T22:56:23.723Z,83.09
2022-09-17T22:58:50.782Z,83.71
2022-09-17T23:01:23.826Z,84.29
2022-09-17T23:03:53.616Z,84.35
2022-09-17T23:06:26.128Z,84.81
2022-09-17T23:08:52.890Z,85.24
2022-09-17T23:11:22.597Z,85.33
2022-09-17T23:13:50.842Z,85.40
2022-09-17T23:16:17.709Z,85.54
2022-09-17T23:18:44.414Z,85.36
2022-09-17T23:21:16.456Z,86.81
2022-09-17T23:23:46.239Z,87.45
2022-09-17T23:26:21.370Z,87.85
2022-09-17T23:28:48.695Z,87.14
2022-09-17T23:31:21.526Z,87.85
2022-09-17T23:33:48.989Z,87.46
2022-09-17T23:36:22.439Z,86.72
2022-09-17T23:38:50.100Z,86.48
2022-09-17T23:41:36.766Z,86.08
2022-09-17T23:44:09.398Z,86.67
2022-09-17T23:46:38.841Z,86.34
2022-09-17T23:49:06.442Z,86.47
2022-09-17T23:51:35.751Z,86.76
2022-09-17T23:54:02.979Z,86.84
2022-09-17T23:56:29.518Z,87.16
2022-09-17T23:58:59.083Z,87.34
